Time;durP1;ratioP1;P1;durP2;ratioP2;P2;SDS_P1;SDS_P2;PMS_P1;PMS_P2;Temp;Humidity;BMP_temperature;BMP_pressure;BME280_temperature;BME280_humidity;BME280_pressure;Samples;Min_cycle;Max_cycle;Signal;HPM_P1;HPM_P2
2022/08/19 04:22:35;;;;;;;28.17;13.88;;;;;;;19.60;100.00;99839.00;5089091;28;20358;-66
2022/08/19 04:25:00;;;;;;;27.42;14.10;;;;;;;19.62;100.00;99839.56;5089017;28;20044;-66
2022/08/19 04:27:26;;;;;;;26.67;13.55;;;;;;;19.62;100.00;99834.97;5088803;28;20040;-65
2022/08/19 04:29:52;;;;;;;30.50;14.70;;;;;;;19.65;100.00;99831.81;5088770;28;20036;-65
2022/08/19 04:32:17;;;;;;;27.92;13.95;;;;;;;19.63;100.00;99827.72;5088945;28;20158;-66
2022/08/19 04:34:43;;;;;;;36.17;14.35;;;;;;;19.64;100.00;99827.47;5088141;28;20075;-66
2022/08/19 04:37:12;;;;;;;26.13;13.27;;;;;;;19.64;100.00;99832.88;5088734;28;20082;-66
2022/08/19 04:42:38;;;;;;;26.25;14.15;;;;;;;19.63;100.00;99836.66;5088624;28;20090;-66
2022/08/19 04:45:09;;;;;;;28.13;13.25;;;;;;;19.66;100.00;99844.25;5089058;28;20048;-66
2022/08/19 04:47:40;;;;;;;31.88;15.32;;;;;;;19.63;100.00;99842.06;5088698;28;20469;-66
2022/08/19 04:50:07;;;;;;;31.42;13.95;;;;;;;19.66;100.00;99846.94;5088333;28;20051;-66
2022/08/19 04:52:33;;;;;;;25.98;13.10;;;;;;;19.68;100.00;99844.81;5088585;28;20047;-66
2022/08/19 04:54:59;;;;;;;28.23;13.98;;;;;;;19.69;100.00;99840.22;5088341;28;20290;-66
2022/08/19 04:57:25;;;;;;;27.20;14.25;;;;;;;19.72;100.00;99850.56;5088415;28;20068;-66
2022/08/19 04:59:54;;;;;;;29.38;14.05;;;;;;;19.74;100.00;99851.97;5088193;28;20489;-66
2022/08/19 05:02:20;;;;;;;28.45;14.15;;;;;;;19.75;100.00;99850.88;5088118;28;20032;-66
2022/08/19 05:04:45;;;;;;;29.40;14.52;;;;;;;19.81;100.00;99859.09;5087085;28;20032;-65
2022/08/19 05:07:11;;;;;;;30.00;13.85;;;;;;;19.84;100.00;99861.31;5088251;28;20070;-66
2022/08/19 05:09:37;;;;;;;28.73;13.88;;;;;;;19.86;100.00;99845.69;5087865;28;20040;-67
2022/08/19 05:12:03;;;;;;;31.17;14.55;;;;;;;19.88;100.00;99851.66;5088121;28;20040;-67
2022/08/19 05:14:29;;;;;;;30.10;13.82;;;;;;;19.89;100.00;99851.44;5088340;28;20044;-66
2022/08/19 05:16:54;;;;;;;28.10;13.98;;;;;;;19.95;100.00;99860.41;5088179;28;20040;-66
2022/08/19 05:24:47;;;;;;;25.67;13.88;;;;;;;19.98;100.00;99870.75;5087979;28;20040;-65
2022/08/19 05:27:13;;;;;;;29.92;13.63;;;;;;;19.98;100.00;99876.16;5087811;28;20505;-65
2022/08/19 05:29:38;;;;;;;33.17;14.95;;;;;;;20.00;100.00;99874.03;5087563;28;20497;-66
2022/08/19 05:32:08;;;;;;;31.33;14.55;;;;;;;20.02;100.00;99878.16;5084753;28;20028;-66
2022/08/19 05:34:35;;;;;;;31.85;14.68;;;;;;;20.04;100.00;99884.13;5074120;28;20052;-66
2022/08/19 05:37:02;;;;;;;30.60;14.02;;;;;;;20.03;100.00;99892.47;5074104;28;20029;-61
2022/08/19 05:39:30;;;;;;;34.13;14.90;;;;;;;20.09;100.00;99896.91;5073709;28;20041;-61
2022/08/19 05:41:59;;;;;;;30.48;15.18;;;;;;;20.14;100.00;99905.09;5074028;28;20032;-61
2022/08/19 05:44:26;;;;;;;27.52;13.48;;;;;;;20.17;100.00;99904.63;5073951;28;20439;-61
2022/08/19 05:46:53;;;;;;;26.45;13.63;;;;;;;20.20;100.00;99911.41;5073853;28;20458;-61
2022/08/19 05:49:21;;;;;;;28.80;14.15;;;;;;;20.26;100.00;99916.66;5073560;28;20122;-61
2022/08/19 05:51:46;;;;;;;33.28;14.85;;;;;;;20.27;100.00;99920.19;5073926;28;20118;-62
2022/08/19 05:54:13;;;;;;;33.88;13.43;;;;;;;20.29;100.00;99926.19;5073806;28;20036;-62
2022/08/19 05:56:40;;;;;;;32.58;13.77;;;;;;;20.36;100.00;99931.44;5073844;28;20055;-61
2022/08/19 05:59:10;;;;;;;30.30;14.13;;;;;;;20.33;100.00;99930.03;5073460;28;20036;-61
2022/08/19 06:01:41;;;;;;;29.42;13.40;;;;;;;20.38;100.00;99922.00;5073608;28;20105;-61
2022/08/19 06:04:07;;;;;;;28.30;12.95;;;;;;;20.40;100.00;99921.75;5073691;28;20070;-59
2022/08/19 06:06:34;;;;;;;27.77;14.55;;;;;;;20.40;100.00;99922.56;5073505;28;20140;-61
2022/08/19 06:09:01;;;;;;;25.40;14.00;;;;;;;20.47;99.18;99919.72;5073462;28;20388;-60
2022/08/19 06:11:34;;;;;;;34.00;15.25;;;;;;;20.48;99.03;99922.22;5073401;28;20028;-60
2022/08/19 06:14:03;;;;;;;31.05;13.60;;;;;;;20.48;98.13;99930.34;5073450;28;20068;-61
2022/08/19 06:16:33;;;;;;;29.77;13.60;;;;;;;20.46;97.74;99927.03;5073332;28;20032;-61
2022/08/19 06:19:02;;;;;;;28.15;13.35;;;;;;;20.44;97.14;99928.31;5073270;28;20044;-61
2022/08/19 06:21:29;;;;;;;31.15;13.48;;;;;;;20.44;96.65;99928.31;5072837;28;20043;-61
2022/08/19 06:23:56;;;;;;;31.00;13.93;;;;;;;20.48;96.31;99930.34;5073263;28;20036;-61
2022/08/19 06:26:23;;;;;;;26.80;12.68;;;;;;;20.49;96.63;99920.31;5073090;28;20067;-61
2022/08/19 06:28:48;;;;;;;26.42;12.13;;;;;;;20.51;96.38;99929.00;5073100;28;20040;-61
2022/08/19 06:31:20;;;;;;;25.85;12.23;;;;;;;20.54;97.11;99928.53;5072900;28;20037;-61
2022/08/19 06:33:47;;;;;;;27.20;13.27;;;;;;;20.57;97.21;99939.66;5073025;28;20037;-60
2022/08/19 06:36:21;;;;;;;27.90;12.60;;;;;;;20.60;96.58;99943.75;5072832;28;20040;-61
2022/08/19 06:38:46;;;;;;;24.25;11.70;;;;;;;20.61;97.33;99941.91;5072045;28;20352;-62
2022/08/19 06:41:11;;;;;;;27.27;13.05;;;;;;;20.63;97.46;99943.28;5072775;28;20032;-61
2022/08/19 06:43:37;;;;;;;28.33;13.70;;;;;;;20.60;97.02;99943.75;5071370;28;20448;-60
2022/08/19 06:46:03;;;;;;;27.05;12.00;;;;;;;20.67;97.66;99949.00;5072204;28;20139;-61
2022/08/19 06:48:29;;;;;;;23.73;12.80;;;;;;;20.75;96.67;99945.91;5072827;28;20036;-61
2022/08/19 06:50:55;;;;;;;23.05;12.70;;;;;;;20.78;97.37;99942.69;5071249;28;20504;-62
2022/08/19 06:53:21;;;;;;;27.00;12.73;;;;;;;20.81;95.39;99936.78;5071360;28;20032;-63
2022/08/19 06:55:47;;;;;;;24.30;12.35;;;;;;;20.84;95.76;99939.81;5072429;28;20415;-62
2022/08/19 06:58:12;;;;;;;25.77;11.85;;;;;;;20.93;95.14;99939.38;5072668;28;20048;-62
2022/08/19 07:00:38;;;;;;;25.67;12.02;;;;;;;21.00;94.88;99942.75;5072168;28;20040;-63
2022/08/19 07:03:03;;;;;;;26.15;12.75;;;;;;;21.05;94.59;99948.22;5072422;28;20477;-62
2022/08/19 07:05:29;;;;;;;26.05;13.07;;;;;;;21.09;92.72;99947.47;5072287;28;20040;-62
2022/08/19 07:07:54;;;;;;;23.38;12.98;;;;;;;21.15;91.56;99956.50;5072383;28;20032;-62
2022/08/19 07:10:20;;;;;;;28.27;13.38;;;;;;;21.23;90.68;99956.06;5071893;28;20445;-61
2022/08/19 07:12:46;;;;;;;26.60;12.48;;;;;;;21.29;89.81;99952.38;5070949;28;20132;-62
2022/08/19 07:15:12;;;;;;;22.20;11.18;;;;;;;21.36;88.96;99957.63;5071856;28;20040;-62
2022/08/19 07:17:38;;;;;;;20.00;10.45;;;;;;;21.42;88.44;99962.03;5071167;28;20107;-62
2022/08/19 07:20:07;;;;;;;22.73;12.05;;;;;;;21.45;87.13;99960.72;5071190;28;20036;-62
2022/08/19 07:22:33;;;;;;;25.35;12.13;;;;;;;21.51;85.40;99948.88;5071684;28;20037;-62
2022/08/19 07:24:59;;;;;;;22.30;11.63;;;;;;;21.61;85.16;99949.00;5071561;28;20448;-62
2022/08/19 07:27:25;;;;;;;23.27;10.85;;;;;;;21.65;83.10;99950.16;5071695;28;20052;-61
2022/08/19 07:29:52;;;;;;;21.67;11.00;;;;;;;21.70;82.82;99952.88;5071539;28;20044;-62
2022/08/19 07:32:18;;;;;;;25.58;12.25;;;;;;;21.72;82.10;99953.47;5071646;28;20048;-63
2022/08/19 07:34:45;;;;;;;21.27;10.88;;;;;;;21.75;82.29;99952.13;5071758;28;20035;-63
2022/08/19 07:37:10;;;;;;;23.67;11.38;;;;;;;21.77;81.95;99950.00;5071641;28;20041;-62
2022/08/19 07:39:37;;;;;;;24.92;12.18;;;;;;;21.77;81.72;99945.38;5071375;28;20443;-62
2022/08/19 07:42:08;;;;;;;24.73;11.98;;;;;;;21.85;79.35;99942.25;5071814;28;20040;-62
2022/08/19 07:44:34;;;;;;;21.38;11.23;;;;;;;21.93;79.60;99947.19;5071836;28;20071;-62
2022/08/19 07:47:01;;;;;;;23.23;10.73;;;;;;;21.98;78.37;99951.88;5071592;28;20040;-62
2022/08/19 07:49:26;;;;;;;20.80;10.63;;;;;;;22.08;77.29;99953.84;5071339;28;20043;-62
2022/08/19 07:51:55;;;;;;;18.58;11.20;;;;;;;22.12;77.02;99957.72;5071617;28;20028;-62
2022/08/19 07:54:22;;;;;;;20.20;10.43;;;;;;;22.18;76.64;99949.38;5071571;28;20036;-63
2022/08/19 07:56:50;;;;;;;19.67;9.18;;;;;;;22.22;75.57;99949.69;5071234;28;20041;-63
2022/08/19 07:59:17;;;;;;;17.65;9.63;;;;;;;22.28;75.78;99951.38;5071223;28;20032;-62
2022/08/19 08:01:44;;;;;;;17.13;9.70;;;;;;;22.28;75.45;99959.50;5071441;28;20133;-61
2022/08/19 08:09:41;;;;;;;17.85;10.07;;;;;;;22.33;74.27;99958.75;5071139;28;20163;-62
2022/08/19 08:12:14;;;;;;;16.98;10.02;;;;;;;22.39;74.95;99944.16;5071444;28;20055;-62
2022/08/19 08:14:53;;;;;;;20.20;9.93;;;;;;;22.45;73.90;99949.34;5071354;28;20115;-62
2022/08/19 08:17:20;;;;;;;15.65;9.18;;;;;;;22.58;73.97;99947.28;5071334;28;20393;-62
2022/08/19 08:19:46;;;;;;;;;;;;;;;22.66;72.10;99952.22;5071463;28;20209;-62
2022/08/19 08:25:11;;;;;;;17.00;9.50;;;;;;;22.95;71.46;99950.00;5071774;28;20068;-61
2022/08/19 08:27:41;;;;;;;17.60;9.18;;;;;;;23.12;71.26;99947.13;5071283;28;20450;-62
2022/08/19 08:30:09;;;;;;;18.05;9.00;;;;;;;23.22;69.52;99947.22;5070938;28;20302;-62
2022/08/19 08:32:37;;;;;;;16.00;8.75;;;;;;;23.29;71.29;99954.03;5071208;28;20124;-59
2022/08/19 08:35:05;;;;;;;14.30;9.02;;;;;;;23.44;69.98;99956.00;5071118;28;20040;-59
2022/08/19 08:37:30;;;;;;;16.95;9.55;;;;;;;23.52;68.98;99955.50;5071147;28;20040;-61
2022/08/19 08:39:56;;;;;;;15.63;8.70;;;;;;;23.64;69.44;99954.50;5070880;28;20405;-60
2022/08/19 08:42:32;;;;;;;16.23;9.70;;;;;;;23.69;67.41;99960.75;5071136;28;20037;-60
2022/08/19 08:45:01;;;;;;;13.80;8.52;;;;;;;23.81;67.13;99957.81;5071199;28;20064;-62
2022/08/19 08:47:32;;;;;;;14.70;8.38;;;;;;;23.94;67.84;99961.94;5071124;28;20029;-60
2022/08/19 08:50:04;;;;;;;12.40;7.18;;;;;;;24.02;64.46;99954.06;5070858;28;20437;-58
2022/08/19 08:52:42;;;;;;;11.30;6.88;;;;;;;24.14;64.24;99953.81;5070907;28;20033;-61
2022/08/19 08:55:15;;;;;;;11.35;7.30;;;;;;;24.28;64.42;99959.53;5071025;28;20040;-61
2022/08/19 08:57:47;;;;;;;11.15;7.13;;;;;;;24.34;62.88;99963.94;5070986;28;20041;-59
2022/08/19 09:00:22;;;;;;;9.93;6.15;;;;;;;24.50;63.70;99962.03;5070750;28;20393;-56
2022/08/19 09:02:48;;;;;;;11.35;7.07;;;;;;;24.55;61.95;99964.75;5070770;28;20041;-60
2022/08/19 09:05:14;;;;;;;11.15;6.15;;;;;;;24.60;62.35;99948.44;5070758;28;20132;-60
2022/08/19 09:07:49;;;;;;;9.32;6.20;;;;;;;24.67;61.51;99956.31;5072093;28;20492;-57
2022/08/19 09:10:43;;;;;;;9.93;5.78;;;;;;;24.62;61.75;99948.97;5074341;28;20033;-60
2022/08/19 09:13:27;;;;;;;11.43;6.03;;;;;;;24.72;61.94;99953.59;5074386;28;20067;-59
2022/08/19 09:16:01;;;;;;;14.65;6.03;;;;;;;24.90;62.82;99955.75;5074453;28;20040;-60
2022/08/19 09:18:48;;;;;;;10.13;5.55;;;;;;;25.01;61.55;99954.63;5074432;28;20059;-56
2022/08/19 09:21:15;;;;;;;8.05;5.32;;;;;;;25.05;59.21;99953.03;5074191;28;20516;-57
2022/08/19 09:23:43;;;;;;;7.05;5.13;;;;;;;25.10;60.25;99954.91;5074180;28;20033;-59
2022/08/19 09:26:15;;;;;;;9.02;5.13;;;;;;;25.08;59.65;99957.91;5074499;28;20354;-61
2022/08/19 09:28:43;;;;;;;7.70;4.95;;;;;;;25.15;58.59;99947.53;5074215;28;20040;-62
2022/08/19 09:31:35;;;;;;;9.63;5.28;;;;;;;25.22;58.54;99951.88;5074169;28;20424;-57
2022/08/19 09:34:03;;;;;;;8.50;5.65;;;;;;;25.51;57.42;99944.72;5072040;28;20408;-59
2022/08/19 09:36:30;;;;;;;7.88;5.15;;;;;;;25.84;57.29;99953.31;5074088;28;20064;-57
2022/08/19 09:38:56;;;;;;;6.97;5.40;;;;;;;25.94;55.80;99961.44;5074047;28;20044;-58
2022/08/19 09:41:24;;;;;;;6.05;4.40;;;;;;;26.22;56.38;99949.81;5073558;28;20043;-55
2022/08/19 09:43:51;;;;;;;6.60;4.45;;;;;;;26.54;54.57;99956.69;5074061;28;20067;-55
2022/08/19 09:46:20;;;;;;;7.15;4.82;;;;;;;26.54;53.82;99955.84;5074052;28;20505;-62
2022/08/19 09:48:48;;;;;;;7.20;4.28;;;;;;;26.65;53.42;99952.75;5072333;28;20032;-62
2022/08/19 09:51:17;;;;;;;6.57;4.57;;;;;;;26.61;52.67;99951.72;5073749;28;20056;-63
2022/08/19 09:53:44;;;;;;;6.38;4.25;;;;;;;26.90;51.61;99948.16;5073884;28;20074;-63
2022/08/19 09:56:12;;;;;;;5.80;4.32;;;;;;;27.21;52.15;99945.97;5073851;28;20052;-62
2022/08/19 09:58:37;;;;;;;;;;;;;;;27.76;49.80;99944.47;5074308;28;20040;-62
2022/08/19 10:01:04;;;;;;;6.22;4.20;;;;;;;28.05;48.98;99951.75;5073347;28;19923;-62
2022/08/19 10:03:31;;;;;;;6.75;4.50;;;;;;;28.46;48.35;99956.63;5073770;28;20396;-62
2022/08/19 10:05:58;;;;;;;5.88;3.92;;;;;;;28.36;46.94;99955.69;5072403;28;20036;-62
2022/08/19 10:08:42;;;;;;;5.63;4.20;;;;;;;27.56;46.97;99958.38;5073563;28;20035;-63
2022/08/19 10:11:09;;;;;;;6.18;5.05;;;;;;;27.23;47.90;99958.22;5073377;28;20040;-62
2022/08/19 10:13:35;;;;;;;6.95;4.57;;;;;;;27.42;48.13;99962.94;5073379;28;20089;-62
2022/08/19 10:16:07;;;;;;;4.53;3.78;;;;;;;27.62;48.66;99950.94;5073445;28;20119;-63
2022/08/19 10:18:34;;;;;;;4.60;4.03;;;;;;;28.10;47.13;99954.38;5073183;28;20039;-62
2022/08/19 10:21:09;;;;;;;6.45;4.78;;;;;;;28.20;45.88;99946.03;5072883;28;20036;-63
2022/08/19 10:23:39;;;;;;;5.35;3.70;;;;;;;28.32;47.52;99957.38;5073405;28;20098;-63
2022/08/19 10:26:06;;;;;;;4.60;3.92;;;;;;;28.62;46.13;99957.97;5073224;28;20048;-62
2022/08/19 10:28:36;;;;;;;5.28;3.80;;;;;;;28.63;45.37;99951.41;5073314;28;20574;-62
2022/08/19 10:31:07;;;;;;;4.60;3.33;;;;;;;29.11;45.75;99951.13;5072941;28;20040;-62
2022/08/19 10:33:33;;;;;;;3.80;3.40;;;;;;;29.01;45.25;99943.88;5073691;28;20036;-63
2022/08/19 10:36:04;;;;;;;5.53;4.10;;;;;;;28.97;44.65;99955.78;5072959;28;20045;-63
2022/08/19 10:38:31;;;;;;;3.70;3.35;;;;;;;29.07;43.90;99939.13;5073028;28;20106;-63
2022/08/19 10:40:57;;;;;;;4.82;3.80;;;;;;;29.78;44.22;99934.13;5072489;28;20052;-62
2022/08/19 10:43:22;;;;;;;6.25;3.35;;;;;;;29.92;43.04;99932.97;5072771;28;20398;-62
2022/08/19 10:45:59;;;;;;;4.80;3.83;;;;;;;29.67;43.76;99930.81;5072686;28;20096;-62
2022/08/19 10:48:24;;;;;;;5.63;3.70;;;;;;;29.76;42.77;99934.44;5072762;28;20481;-62
2022/08/19 10:53:34;;;;;;;5.55;3.92;;;;;;;29.65;42.06;99924.81;5072679;28;20098;-62
2022/08/19 10:58:44;;;;;;;5.20;3.70;;;;;;;30.76;40.23;99915.03;5073334;28;20044;-61
2022/08/19 11:01:10;;;;;;;4.03;3.63;;;;;;;30.61;39.81;99913.47;5072487;28;20040;-62
2022/08/19 11:03:35;;;;;;;5.25;4.07;;;;;;;30.30;40.33;99918.13;5072558;28;20036;-61
2022/08/19 11:06:06;;;;;;;5.07;3.70;;;;;;;30.33;40.80;99910.06;5072314;28;20024;-61
2022/08/19 11:08:33;;;;;;;5.10;4.25;;;;;;;29.34;41.31;99895.25;5072397;28;20094;-61
2022/08/19 11:11:00;;;;;;;4.28;3.85;;;;;;;29.91;40.91;99911.31;5070795;28;20028;-62
2022/08/19 11:13:28;;;;;;;4.90;4.05;;;;;;;29.95;41.44;99901.34;5072219;28;20143;-62
2022/08/19 11:16:02;;;;;;;4.60;4.10;;;;;;;30.80;40.56;99891.31;5070758;28;20160;-62
2022/08/19 11:18:28;;;;;;;4.35;3.95;;;;;;;30.74;39.46;99898.88;5072279;28;20033;-63
2022/08/19 11:20:53;;;;;;;3.97;3.58;;;;;;;30.92;39.38;99898.97;5071872;28;20037;-62
2022/08/19 11:23:19;;;;;;;7.45;3.72;;;;;;;31.00;39.90;99895.44;5072197;28;20086;-62
2022/08/19 11:25:45;;;;;;;3.55;3.25;;;;;;;31.23;38.86;99888.72;5070796;28;20048;-62
2022/08/19 11:28:11;;;;;;;4.00;3.60;;;;;;;31.05;39.03;99882.34;5072084;28;20060;-62
2022/08/19 11:30:37;;;;;;;4.00;3.20;;;;;;;31.49;38.14;99879.72;5069690;28;20618;-62
2022/08/19 11:33:03;;;;;;;4.07;3.55;;;;;;;31.59;39.01;99880.22;5071843;28;20090;-62
2022/08/19 11:35:28;;;;;;;3.53;3.23;;;;;;;31.17;39.22;99879.00;5070563;28;20080;-62
2022/08/19 11:37:55;;;;;;;4.13;3.53;;;;;;;30.93;39.53;99882.13;5071723;28;20068;-61
2022/08/19 11:40:21;;;;;;;;;;;;;;;30.13;41.43;99878.44;5071873;28;20054;-60
2022/08/19 11:42:55;;;;;;;4.40;4.00;;;;;;;29.58;42.80;99873.09;5071764;28;19923;-62
2022/08/19 11:45:26;;;;;;;4.22;3.83;;;;;;;29.65;42.14;99878.16;5071632;28;20037;-62
2022/08/19 11:47:51;;;;;;;4.05;3.38;;;;;;;29.46;43.00;99875.50;5071554;28;20512;-62
2022/08/19 11:50:17;;;;;;;4.47;4.07;;;;;;;30.13;42.09;99883.94;5071195;28;20044;-61
2022/08/19 11:52:44;;;;;;;4.68;3.67;;;;;;;30.56;40.78;99882.56;5071355;28;20557;-62
2022/08/19 11:55:11;;;;;;;4.72;3.95;;;;;;;31.48;38.88;99880.84;5071466;28;20115;-62
2022/08/19 11:57:36;;;;;;;4.17;3.77;;;;;;;31.67;38.21;99873.09;5071505;28;20044;-62
2022/08/19 12:00:04;;;;;;;4.07;3.67;;;;;;;32.26;37.89;99878.13;5071101;28;20036;-62
2022/08/19 12:02:30;;;;;;;3.58;3.15;;;;;;;32.83;36.40;99877.84;5071490;28;20087;-62
2022/08/19 12:04:55;;;;;;;4.68;3.40;;;;;;;33.01;36.29;99873.09;5071349;28;20053;-63
2022/08/19 12:07:21;;;;;;;3.70;3.40;;;;;;;32.89;35.28;99871.84;5071357;28;20041;-63
2022/08/19 12:09:47;;;;;;;3.77;3.47;;;;;;;32.61;36.10;99882.47;5070579;28;20074;-63
2022/08/19 12:12:13;;;;;;;3.10;2.80;;;;;;;33.30;34.68;99878.59;5071467;28;20044;-62
2022/08/19 12:14:38;;;;;;;3.67;3.33;;;;;;;32.98;35.88;99882.03;5071257;28;20044;-63
2022/08/19 12:17:07;;;;;;;5.17;3.57;;;;;;;32.19;36.17;99888.84;5071249;28;20078;-62
2022/08/19 12:19:33;;;;;;;4.05;3.65;;;;;;;31.91;37.46;99900.22;5070995;28;20089;-63
2022/08/19 12:22:02;;;;;;;4.03;3.63;;;;;;;30.88;38.23;99892.47;5071197;28;20048;-63
2022/08/19 12:24:31;;;;;;;3.90;3.50;;;;;;;30.61;39.02;99899.75;5070065;28;20128;-61
2022/08/19 12:26:58;;;;;;;3.78;3.40;;;;;;;29.76;39.60;99890.53;5071050;28;20068;-62
2022/08/19 12:29:29;;;;;;;4.30;3.42;;;;;;;29.55;40.46;99897.59;5070854;28;20068;-62
2022/08/19 12:32:00;;;;;;;4.38;3.97;;;;;;;29.39;41.54;99891.56;5071054;28;20410;-62
2022/08/19 12:34:29;;;;;;;5.40;3.65;;;;;;;29.17;42.24;99895.88;5071177;28;20048;-63
2022/08/19 12:36:56;;;;;;;4.78;3.70;;;;;;;28.77;43.14;99896.63;5071051;28;20044;-61
2022/08/19 12:39:22;;;;;;;3.92;3.53;;;;;;;28.82;43.45;99896.50;5070754;28;20052;-62
2022/08/19 12:41:48;;;;;;;4.88;4.25;;;;;;;28.37;44.32;99905.28;5071115;28;20607;-61
2022/08/19 12:44:14;;;;;;;8.77;3.78;;;;;;;28.13;45.22;99897.13;5074629;28;20074;-62
2022/08/19 12:46:40;;;;;;;4.18;3.78;;;;;;;28.07;44.00;99889.28;5074936;28;20037;-62
2022/08/19 12:49:05;;;;;;;5.47;4.13;;;;;;;27.96;44.85;99890.56;5074631;28;20075;-62
2022/08/19 12:51:31;;;;;;;4.53;4.13;;;;;;;27.81;45.05;99889.69;5074890;28;20409;-62
2022/08/19 12:53:56;;;;;;;3.90;3.50;;;;;;;27.74;44.03;99889.25;5074837;28;20040;-60
2022/08/19 12:56:22;;;;;;;4.20;3.80;;;;;;;27.87;43.23;99886.88;5074723;28;20040;-62
2022/08/19 12:58:47;;;;;;;4.30;3.45;;;;;;;28.48;41.50;99883.16;5074806;28;20435;-61
2022/08/19 13:01:15;;;;;;;4.65;3.80;;;;;;;29.36;41.56;99887.53;5074589;28;20094;-62
2022/08/19 13:03:42;;;;;;;3.63;3.13;;;;;;;30.12;39.07;99882.28;5074819;28;20066;-62
2022/08/19 13:06:09;;;;;;;4.20;3.40;;;;;;;31.00;37.55;99879.72;5074645;28;20047;-61
2022/08/19 13:08:35;;;;;;;3.20;2.90;;;;;;;31.69;35.83;99868.09;5074888;28;20040;-62
2022/08/19 13:11:32;;;;;;;3.63;3.33;;;;;;;32.08;35.29;99869.91;5074446;28;20090;-62
2022/08/19 13:13:58;;;;;;;3.45;3.15;;;;;;;32.39;33.99;99874.41;5061279;28;20052;-62
2022/08/19 13:16:24;;;;;;;3.22;2.92;;;;;;;32.57;33.46;99873.22;5074737;28;20076;-62
2022/08/19 13:18:53;;;;;;;3.10;2.80;;;;;;;32.89;33.58;99860.81;5074464;28;20075;-62
2022/08/19 13:21:20;;;;;;;2.97;2.67;;;;;;;33.30;32.91;99852.97;5074239;28;20485;-62
2022/08/19 13:23:47;;;;;;;2.88;2.58;;;;;;;33.52;31.61;99865.66;5074482;28;20502;-62
2022/08/19 13:26:12;;;;;;;3.00;2.70;;;;;;;33.61;32.33;99856.19;5074300;28;20028;-61
2022/08/19 13:34:10;;;;;;;2.65;2.20;;;;;;;34.58;28.85;99868.00;5074278;28;20037;-62
2022/08/19 13:36:37;;;;;;;2.20;1.90;;;;;;;34.36;28.39;99852.59;5074295;28;20038;-62
2022/08/19 13:39:03;;;;;;;2.42;2.22;;;;;;;34.40;29.42;99857.09;5074105;28;20044;-62
2022/08/19 13:41:29;;;;;;;;;;;;;;;34.16;28.07;99857.03;5074541;28;20040;-61
2022/08/19 13:43:54;;;;;;;2.13;1.83;;;;;;;33.94;28.83;99842.44;5074126;28;19923;-62
2022/08/19 13:46:20;;;;;;;2.60;2.10;;;;;;;33.65;28.93;99843.34;5073918;28;20048;-62
2022/08/19 13:48:48;;;;;;;2.00;1.80;;;;;;;33.21;28.92;99842.78;5073970;28;20083;-63
2022/08/19 13:51:16;;;;;;;2.13;1.92;;;;;;;33.05;29.33;99841.75;5072612;28;20405;-62
2022/08/19 13:53:42;;;;;;;1.80;1.58;;;;;;;32.66;28.96;99835.41;5073454;28;20090;-63
2022/08/19 13:56:10;;;;;;;1.83;1.67;;;;;;;32.43;29.08;99836.81;5073738;28;20127;-63
2022/08/19 13:58:37;;;;;;;1.73;1.63;;;;;;;32.15;29.95;99841.88;5073911;28;20037;-62
2022/08/19 14:01:03;;;;;;;3.08;1.70;;;;;;;31.68;29.15;99838.94;5073451;28;20040;-63
2022/08/19 14:03:28;;;;;;;2.00;1.80;;;;;;;31.43;29.52;99842.47;5073740;28;20044;-62
2022/08/19 14:05:54;;;;;;;2.10;1.90;;;;;;;31.46;30.31;99837.16;5073618;28;20052;-62
2022/08/19 14:08:19;;;;;;;1.80;1.53;;;;;;;31.36;31.06;99836.66;5073801;28;20111;-62
2022/08/19 14:10:45;;;;;;;2.20;1.90;;;;;;;31.31;30.72;99826.63;5073076;28;20432;-62
2022/08/19 14:13:15;;;;;;;1.93;1.70;;;;;;;31.34;31.18;99839.72;5073462;28;20035;-62
2022/08/19 14:15:41;;;;;;;2.08;1.83;;;;;;;31.30;31.85;99841.50;5073480;28;20086;-62
2022/08/19 14:18:06;;;;;;;2.05;1.85;;;;;;;31.05;31.11;99835.59;5073766;28;20040;-63
2022/08/19 14:20:35;;;;;;;1.93;1.73;;;;;;;31.23;32.09;99832.88;5073184;28;20064;-62
2022/08/19 14:23:01;;;;;;;2.67;2.00;;;;;;;31.12;32.54;99839.81;5073372;28;20549;-63
2022/08/19 14:25:29;;;;;;;1.70;1.60;;;;;;;30.98;32.60;99845.44;5073079;28;20389;-62
2022/08/19 14:27:55;;;;;;;2.42;2.20;;;;;;;30.67;33.08;99839.94;5073281;28;20037;-63
2022/08/19 14:30:26;;;;;;;2.72;2.05;;;;;;;30.70;33.06;99833.84;5072990;28;20482;-63
2022/08/19 14:32:52;;;;;;;2.55;2.03;;;;;;;30.41;33.42;99845.31;5073383;28;20036;-62
2022/08/19 14:35:18;;;;;;;2.28;2.08;;;;;;;30.32;33.44;99837.03;5073089;28;20048;-62
2022/08/19 14:37:45;;;;;;;2.30;2.10;;;;;;;30.25;33.00;99848.44;5073129;28;20047;-62
2022/08/19 14:40:11;;;;;;;2.67;2.15;;;;;;;30.11;33.60;99838.66;5072796;28;20066;-62
2022/08/19 14:42:37;;;;;;;2.70;2.40;;;;;;;30.14;34.97;99836.13;5072955;28;20036;-62
2022/08/19 14:45:04;;;;;;;2.58;2.38;;;;;;;30.21;34.55;99827.44;5072823;28;20397;-62
2022/08/19 14:47:30;;;;;;;2.30;2.00;;;;;;;30.24;35.22;99830.34;5072790;28;20047;-62
2022/08/19 14:49:56;;;;;;;2.28;1.95;;;;;;;30.21;33.69;99831.00;5072481;28;20028;-62
2022/08/19 14:52:22;;;;;;;2.72;2.22;;;;;;;30.16;34.32;99819.31;5071498;28;20576;-62
2022/08/19 14:54:47;;;;;;;2.47;2.28;;;;;;;30.11;34.73;99816.69;5072673;28;20040;-62
2022/08/19 14:57:15;;;;;;;2.45;2.25;;;;;;;30.10;34.96;99828.81;5072483;28;20036;-62
2022/08/19 14:59:43;;;;;;;3.47;2.08;;;;;;;29.97;33.92;99823.03;5072318;28;20555;-62
2022/08/19 15:02:10;;;;;;;2.30;2.10;;;;;;;29.83;34.64;99826.97;5072470;28;20487;-62
2022/08/19 15:04:35;;;;;;;3.25;2.53;;;;;;;29.68;34.45;99831.72;5072167;28;20032;-62
2022/08/19 15:07:04;;;;;;;3.60;3.22;;;;;;;29.41;35.29;99824.34;5072460;28;20044;-63
2022/08/19 15:09:31;;;;;;;2.90;2.60;;;;;;;29.18;35.70;99828.94;5071869;28;20127;-63
2022/08/19 15:11:58;;;;;;;;;;;;;;;28.97;36.55;99829.69;5072745;28;20102;-63
2022/08/19 15:14:24;;;;;;;3.10;2.53;;;;;;;28.83;37.32;99829.66;5072289;28;19982;-63
2022/08/19 15:16:49;;;;;;;2.63;2.40;;;;;;;28.60;37.65;99831.44;5071575;28;20068;-62
2022/08/19 15:19:15;;;;;;;3.42;2.78;;;;;;;28.45;38.32;99837.22;5072016;28;20102;-62
2022/08/19 15:21:40;;;;;;;2.40;2.20;;;;;;;28.33;38.88;99832.22;5072135;28;20032;-62
2022/08/19 15:24:06;;;;;;;4.03;3.17;;;;;;;28.22;39.41;99845.22;5072047;28;20560;-62
2022/08/19 15:26:32;;;;;;;3.20;2.90;;;;;;;28.01;39.90;99835.75;5072120;28;20055;-63
2022/08/19 15:28:59;;;;;;;2.83;2.53;;;;;;;27.92;39.90;99840.28;5070800;28;20401;-63
2022/08/19 15:31:27;;;;;;;3.72;3.22;;;;;;;27.85;40.06;99843.41;5071918;28;20037;-62
2022/08/19 15:33:56;;;;;;;2.88;2.60;;;;;;;27.78;39.51;99848.44;5072077;28;20105;-62
2022/08/19 15:36:24;;;;;;;4.03;3.17;;;;;;;27.71;39.74;99837.03;5071959;28;20062;-62
2022/08/19 15:38:51;;;;;;;3.08;2.78;;;;;;;27.69;40.02;99841.97;5071770;28;20489;-62
2022/08/19 15:41:24;;;;;;;3.03;2.53;;;;;;;27.60;40.22;99836.34;5071548;28;20572;-61
2022/08/19 15:43:56;;;;;;;3.38;2.75;;;;;;;27.49;39.98;99837.59;5071652;28;20032;-61
2022/08/19 15:46:24;;;;;;;3.38;2.33;;;;;;;27.47;40.14;99837.91;5071649;28;20028;-61
2022/08/19 15:48:51;;;;;;;3.85;2.92;;;;;;;27.58;40.61;99838.53;5071688;28;20040;-62
2022/08/19 15:51:17;;;;;;;5.78;3.92;;;;;;;27.59;41.14;99835.53;5071458;28;20062;-61
2022/08/19 15:53:43;;;;;;;3.70;2.78;;;;;;;27.67;41.20;99833.25;5071616;28;20090;-62
2022/08/19 15:56:09;;;;;;;3.97;2.97;;;;;;;27.68;40.48;99832.97;5070270;28;20036;-62
2022/08/19 16:06:45;;;;;;;3.17;2.70;;;;;;;27.79;39.75;99836.38;5071505;28;20171;-62
2022/08/19 16:09:11;;;;;;;4.85;2.70;;;;;;;27.76;38.56;99835.03;5071068;28;20056;-61
2022/08/19 16:11:37;;;;;;;3.67;2.60;;;;;;;27.78;40.03;99838.28;5071329;28;20085;-62
2022/08/19 16:14:02;;;;;;;3.15;2.38;;;;;;;27.85;38.87;99832.44;5071394;28;20115;-61
2022/08/19 16:16:32;;;;;;;3.38;2.47;;;;;;;27.84;38.65;99830.78;5070847;28;20040;-60
2022/08/19 16:19:01;;;;;;;2.80;2.17;;;;;;;27.88;38.25;99825.56;5071332;28;20036;-62
2022/08/19 16:21:32;;;;;;;3.65;2.45;;;;;;;27.84;38.85;99828.91;5071272;28;20473;-62
2022/08/19 16:23:59;;;;;;;2.67;2.28;;;;;;;27.89;39.10;99836.19;5071236;28;20066;-62
2022/08/19 16:26:29;;;;;;;;;;;;;;;27.93;39.66;99831.75;5071626;28;20404;-61